createdAt,value
2017-05-22T00:00:19.213Z,0
2017-05-22T00:01:33.125Z,0
2017-05-22T00:02:47.692Z,0
2017-05-22T00:04:01.614Z,0
2017-05-22T00:05:15.203Z,0
2017-05-22T00:06:29.122Z,0
2017-05-22T00:07:43.121Z,0
2017-05-22T00:08:58.033Z,0
2017-05-22T00:10:11.646Z,0
2017-05-22T00:11:25.540Z,0
2017-05-22T00:12:39.160Z,0
2017-05-22T00:13:53.152Z,0
2017-05-22T00:15:07.073Z,0
2017-05-22T00:16:21.548Z,0
2017-05-22T00:17:35.135Z,0
2017-05-22T00:18:48.718Z,0
2017-05-22T00:20:02.978Z,0
2017-05-22T00:21:17.503Z,0
2017-05-22T00:22:31.541Z,0
2017-05-22T00:23:45.131Z,0
2017-05-22T00:24:58.815Z,0
2017-05-22T00:26:13.114Z,0
2017-05-22T00:27:26.945Z,0
2017-05-22T00:28:40.485Z,0
2017-05-22T00:29:54.089Z,0
2017-05-22T00:31:08.358Z,0
2017-05-22T00:32:22.251Z,0
2017-05-22T00:33:36.450Z,0
2017-05-22T00:34:50.023Z,0
2017-05-22T00:36:03.589Z,0
2017-05-22T00:37:31.984Z,0
2017-05-22T00:38:45.551Z,0
2017-05-22T00:39:59.414Z,0
2017-05-22T00:41:12.989Z,0
2017-05-22T00:42:26.983Z,0
2017-05-22T00:43:40.610Z,0
2017-05-22T00:44:54.174Z,0
2017-05-22T00:46:08.092Z,0
2017-05-22T00:47:21.754Z,0
2017-05-22T00:48:35.318Z,0
2017-05-22T00:49:48.947Z,0
2017-05-22T00:51:02.481Z,0
2017-05-22T00:52:16.345Z,0
2017-05-22T00:53:30.655Z,0
2017-05-22T00:54:44.850Z,0
2017-05-22T00:55:58.498Z,0
2017-05-22T00:57:12.348Z,0
2017-05-22T00:58:26.277Z,0
2017-05-22T00:59:39.812Z,0
2017-05-22T01:00:53.757Z,0
2017-05-22T01:02:07.608Z,0
2017-05-22T01:03:21.934Z,0
2017-05-22T01:04:35.920Z,0
2017-05-22T01:05:49.503Z,0
2017-05-22T01:07:03.229Z,0
2017-05-22T01:08:16.917Z,0
2017-05-22T01:09:30.525Z,0
2017-05-22T01:10:44.744Z,0
2017-05-22T01:11:58.610Z,0
2017-05-22T01:13:12.290Z,0
2017-05-22T01:14:25.877Z,0
2017-05-22T01:15:39.430Z,0
2017-05-22T01:16:53.708Z,0
2017-05-22T01:18:07.302Z,0
2017-05-22T01:19:20.952Z,0
2017-05-22T01:20:34.523Z,0
2017-05-22T01:21:48.513Z,0
2017-05-22T01:23:02.371Z,0
2017-05-22T01:24:16.051Z,0
2017-05-22T01:25:29.595Z,0
2017-05-22T01:26:43.518Z,0
2017-05-22T01:27:57.886Z,0
2017-05-22T01:29:11.865Z,0
2017-05-22T01:30:25.413Z,0
2017-05-22T01:31:39.326Z,0
2017-05-22T01:32:52.942Z,0
2017-05-22T01:34:07.124Z,0
2017-05-22T01:35:21.053Z,0
2017-05-22T01:36:34.974Z,0
2017-05-22T01:37:48.519Z,0
2017-05-22T01:39:02.471Z,0
2017-05-22T01:40:16.430Z,0
2017-05-22T01:41:30.341Z,0
2017-05-22T01:42:44.007Z,0
2017-05-22T01:43:57.901Z,0
2017-05-22T01:45:11.564Z,0
2017-05-22T01:46:25.502Z,0
2017-05-22T01:47:39.451Z,0
2017-05-22T01:48:53.227Z,0
2017-05-22T01:50:06.779Z,0
2017-05-22T01:51:20.669Z,0
2017-05-22T01:52:34.214Z,0
2017-05-22T01:53:48.461Z,0
2017-05-22T01:55:02.493Z,0
2017-05-22T01:56:16.415Z,0
2017-05-22T01:57:30.133Z,0
2017-05-22T01:58:43.728Z,0
2017-05-22T01:59:57.943Z,0
2017-05-22T02:01:11.610Z,0
2017-05-22T02:02:25.231Z,0
2017-05-22T02:03:39.463Z,0
2017-05-22T02:04:53.388Z,0
2017-05-22T02:06:07.330Z,0
2017-05-22T02:07:21.209Z,0
2017-05-22T02:08:35.387Z,0
2017-05-22T02:09:49.003Z,0
2017-05-22T02:11:02.609Z,0
2017-05-22T02:12:16.890Z,0
2017-05-22T02:13:30.482Z,0
2017-05-22T02:14:44.117Z,0
2017-05-22T02:15:57.685Z,0
2017-05-22T02:17:11.227Z,0
2017-05-22T02:18:25.850Z,0
2017-05-22T02:19:39.752Z,0
2017-05-22T02:20:53.376Z,0
2017-05-22T02:22:07.327Z,0
2017-05-22T02:23:27.896Z,0
2017-05-22T02:24:42.480Z,0
2017-05-22T02:25:56.058Z,0
2017-05-22T02:27:09.753Z,0
2017-05-22T02:28:23.344Z,0
2017-05-22T02:29:37.259Z,0
2017-05-22T02:30:51.416Z,0
2017-05-22T02:32:05.279Z,0
2017-05-22T02:33:19.346Z,0
2017-05-22T02:34:33.277Z,0
2017-05-22T02:35:47.490Z,0
2017-05-22T02:37:01.682Z,0
2017-05-22T02:38:15.239Z,0
2017-05-22T02:39:29.054Z,0
2017-05-22T02:40:42.621Z,0
2017-05-22T02:41:56.264Z,0
2017-05-22T02:43:10.202Z,0
2017-05-22T02:44:23.780Z,0
2017-05-22T02:45:37.381Z,0
2017-05-22T02:46:51.038Z,0
2017-05-22T02:48:05.007Z,0
2017-05-22T02:49:19.231Z,0
2017-05-22T02:50:33.506Z,0
2017-05-22T02:51:47.030Z,0
2017-05-22T02:53:01.653Z,0
2017-05-22T02:54:15.552Z,0
2017-05-22T02:55:29.448Z,0
2017-05-22T02:56:43.265Z,0
2017-05-22T02:57:57.189Z,4
2017-05-22T02:59:11.485Z,4
2017-05-22T03:00:25.072Z,0
2017-05-22T03:01:39.077Z,4
2017-05-22T03:02:53.086Z,4
2017-05-22T03:04:06.724Z,4
2017-05-22T03:05:20.544Z,8
2017-05-22T03:06:34.175Z,4
2017-05-22T03:07:48.276Z,8
2017-05-22T03:09:02.271Z,8
2017-05-22T03:10:16.826Z,8
2017-05-22T03:11:30.781Z,12
2017-05-22T03:12:45.038Z,12
2017-05-22T03:13:59.446Z,12
2017-05-22T03:15:13.356Z,16
2017-05-22T03:16:26.908Z,16
2017-05-22T03:17:40.502Z,20
2017-05-22T03:18:54.203Z,20
2017-05-22T03:20:08.531Z,24
2017-05-22T03:21:22.730Z,28
2017-05-22T03:22:36.333Z,32
2017-05-22T03:23:50.562Z,36
2017-05-22T03:25:04.276Z,40
2017-05-22T03:26:18.507Z,40
2017-05-22T03:27:32.469Z,48
2017-05-22T03:28:46.168Z,48
2017-05-22T03:29:59.866Z,52
2017-05-22T03:31:13.554Z,56
2017-05-22T03:32:27.474Z,60
2017-05-22T03:33:41.099Z,68
2017-05-22T03:34:54.645Z,72
2017-05-22T03:36:08.301Z,80
2017-05-22T03:37:21.847Z,88
2017-05-22T03:38:35.798Z,100
2017-05-22T03:39:49.508Z,112
2017-05-22T03:41:03.172Z,124
2017-05-22T03:42:16.786Z,140
2017-05-22T03:43:30.345Z,156
2017-05-22T03:44:44.671Z,172
2017-05-22T03:45:59.062Z,192
2017-05-22T03:47:12.948Z,212
2017-05-22T03:48:26.517Z,228
2017-05-22T03:49:40.437Z,240
2017-05-22T03:50:54.280Z,260
2017-05-22T03:52:07.940Z,276
2017-05-22T03:53:22.161Z,284
2017-05-22T03:54:35.771Z,288
2017-05-22T03:55:49.725Z,288
2017-05-22T03:57:04.331Z,284
2017-05-22T03:58:18.232Z,284
2017-05-22T03:59:31.849Z,292
2017-05-22T04:00:45.588Z,300
2017-05-22T04:01:59.152Z,312
2017-05-22T04:03:13.053Z,336
2017-05-22T04:04:26.637Z,368
2017-05-22T04:05:41.007Z,416
2017-05-22T04:06:55.001Z,480
2017-05-22T04:08:08.664Z,540
2017-05-22T04:09:23.342Z,608
2017-05-22T04:10:37.267Z,668
2017-05-22T04:11:51.537Z,740
2017-05-22T04:13:05.136Z,820
2017-05-22T04:14:18.783Z,888
2017-05-22T04:15:32.653Z,936
2017-05-22T04:16:46.299Z,968
2017-05-22T04:18:00.042Z,980
2017-05-22T04:19:14.472Z,984
2017-05-22T04:20:28.426Z,988
2017-05-22T04:21:42.512Z,976
2017-05-22T04:22:56.756Z,996
2017-05-22T04:24:10.570Z,1012
2017-05-22T04:25:26.325Z,1016
2017-05-22T04:26:41.590Z,1036
2017-05-22T04:27:57.710Z,1064
2017-05-22T04:29:12.157Z,1076
2017-05-22T04:30:25.898Z,1108
2017-05-22T04:31:40.165Z,1160
2017-05-22T04:32:54.390Z,1224
2017-05-22T04:34:09.631Z,1276
2017-05-22T04:35:23.594Z,1308
2017-05-22T04:36:37.703Z,1328
2017-05-22T04:37:51.658Z,1396
2017-05-22T04:39:05.389Z,1460
2017-05-22T04:40:19.624Z,1584
2017-05-22T04:41:33.251Z,1716
2017-05-22T04:42:46.847Z,1836
2017-05-22T04:44:00.843Z,2016
2017-05-22T04:45:14.497Z,2080
2017-05-22T04:46:28.395Z,2148
2017-05-22T04:47:42.017Z,2136
2017-05-22T04:48:55.609Z,2244
2017-05-22T04:50:09.213Z,2424
2017-05-22T04:51:22.848Z,2568
2017-05-22T04:52:36.820Z,2700
2017-05-22T04:53:50.460Z,2780
2017-05-22T04:55:04.480Z,2816
2017-05-22T04:56:19.081Z,2940
2017-05-22T04:57:32.697Z,3056
2017-05-22T04:58:47.026Z,3056
2017-05-22T05:00:01.235Z,3048
2017-05-22T05:01:15.833Z,3048
2017-05-22T05:02:30.059Z,3144
2017-05-22T05:03:44.050Z,3224
2017-05-22T05:04:58.570Z,3528
2017-05-22T05:06:12.300Z,5964
2017-05-22T05:07:26.249Z,11616
2017-05-22T05:08:39.895Z,14720
2017-05-22T05:09:53.552Z,15200
2017-05-22T05:11:07.431Z,14272
2017-05-22T05:12:21.062Z,14144
2017-05-22T05:13:34.669Z,15520
2017-05-22T05:14:48.360Z,17440
2017-05-22T05:16:02.099Z,18176
2017-05-22T05:17:16.350Z,20128
2017-05-22T05:18:29.969Z,20448
2017-05-22T05:19:43.937Z,19936
2017-05-22T05:20:57.885Z,18752
2017-05-22T05:22:11.628Z,18944
2017-05-22T05:23:26.515Z,15936
2017-05-22T05:24:40.454Z,7860
2017-05-22T05:25:54.241Z,8108
2017-05-22T05:27:07.880Z,7500
2017-05-22T05:28:21.479Z,7444
2017-05-22T05:29:35.842Z,7092
2017-05-22T05:30:49.836Z,6216
2017-05-22T05:32:03.807Z,5464
2017-05-22T05:33:17.427Z,5696
2017-05-22T05:34:31.061Z,5164
2017-05-22T05:35:45.047Z,5304
2017-05-22T05:36:58.707Z,5492
2017-05-22T05:38:12.753Z,5276
2017-05-22T05:39:27.470Z,5180
2017-05-22T05:40:41.065Z,5336
2017-05-22T05:41:55.088Z,5376
2017-05-22T05:43:09.127Z,5540
2017-05-22T05:44:23.429Z,5580
2017-05-22T05:45:37.621Z,5556
2017-05-22T05:46:51.240Z,5820
2017-05-22T05:48:05.568Z,6108
2017-05-22T05:49:19.338Z,6344
2017-05-22T05:50:33.252Z,6448
2017-05-22T05:51:47.371Z,6520
2017-05-22T05:53:00.995Z,6544
2017-05-22T05:54:14.911Z,7052
2017-05-22T05:55:28.584Z,7392
2017-05-22T05:56:42.578Z,7744
2017-05-22T05:57:56.287Z,8052
2017-05-22T05:59:10.359Z,8372
2017-05-22T06:00:24.436Z,8828
2017-05-22T06:01:38.821Z,9160
2017-05-22T06:02:52.501Z,9232
2017-05-22T06:04:06.274Z,9256
2017-05-22T06:05:20.285Z,9152
2017-05-22T06:06:34.912Z,8788
2017-05-22T06:07:48.883Z,8248
2017-05-22T06:09:02.649Z,7744
2017-05-22T06:10:16.398Z,7320
2017-05-22T06:11:30.711Z,7036
2017-05-22T06:12:44.736Z,7104
2017-05-22T06:13:58.513Z,7088
2017-05-22T06:15:12.250Z,6912
2017-05-22T06:16:25.933Z,6892
2017-05-22T06:17:39.893Z,7004
2017-05-22T06:18:54.007Z,7152
2017-05-22T06:20:07.787Z,7364
2017-05-22T06:21:21.469Z,7560
2017-05-22T06:22:35.144Z,7640
2017-05-22T06:23:49.504Z,7584
2017-05-22T06:25:03.611Z,7532
2017-05-22T06:26:17.624Z,7632
2017-05-22T06:27:31.656Z,7680
2017-05-22T06:28:45.772Z,7776
2017-05-22T06:29:59.518Z,7952
2017-05-22T06:31:13.925Z,8052
2017-05-22T06:32:27.700Z,8180
2017-05-22T06:33:41.531Z,8480
2017-05-22T06:34:55.600Z,8772
2017-05-22T06:36:10.024Z,8760
2017-05-22T06:37:24.117Z,8760
2017-05-22T06:38:37.833Z,8648
2017-05-22T06:39:52.123Z,8540
2017-05-22T06:41:06.082Z,8888
2017-05-22T06:42:19.769Z,9208
2017-05-22T06:43:34.125Z,9100
2017-05-22T06:44:48.205Z,9032
2017-05-22T06:46:02.201Z,9004
2017-05-22T06:47:16.802Z,9176
2017-05-22T06:48:30.814Z,9276
2017-05-22T06:49:44.946Z,9320
2017-05-22T06:50:59.208Z,9400
2017-05-22T06:52:13.150Z,9300
2017-05-22T06:53:28.047Z,9288
2017-05-22T06:54:41.673Z,9220
2017-05-22T06:55:56.828Z,9184
2017-05-22T06:57:11.011Z,9104
2017-05-22T06:58:25.025Z,8696
2017-05-22T06:59:38.819Z,8300
2017-05-22T07:00:52.834Z,7920
2017-05-22T07:02:06.836Z,7464
2017-05-22T07:03:20.846Z,7200
2017-05-22T07:04:34.581Z,6600
2017-05-22T07:05:48.317Z,6336
2017-05-22T07:07:02.007Z,6192
2017-05-22T07:08:16.734Z,6260
2017-05-22T07:09:30.863Z,6592
2017-05-22T07:10:45.110Z,7064
2017-05-22T07:11:59.143Z,7552
2017-05-22T07:13:12.788Z,7940
2017-05-22T07:14:26.724Z,8240
2017-05-22T07:15:41.181Z,8888
2017-05-22T07:16:55.630Z,8860
2017-05-22T07:18:09.246Z,8804
2017-05-22T07:19:22.928Z,8780
2017-05-22T07:20:37.370Z,8540
2017-05-22T07:21:51.199Z,8468
2017-05-22T07:23:05.215Z,8780
2017-05-22T07:24:19.291Z,8948
2017-05-22T07:25:33.322Z,9204
2017-05-22T07:26:47.520Z,8668
2017-05-22T07:28:01.160Z,8492
2017-05-22T07:29:14.850Z,9076
2017-05-22T07:30:28.817Z,9060
2017-05-22T07:31:42.563Z,9100
2017-05-22T07:32:56.662Z,8808
2017-05-22T07:34:10.596Z,8744
2017-05-22T07:35:24.624Z,8496
2017-05-22T07:36:38.423Z,7984
2017-05-22T07:37:52.316Z,7696
2017-05-22T07:39:06.365Z,7240
2017-05-22T07:40:20.434Z,6992
2017-05-22T07:41:34.078Z,6956
2017-05-22T07:42:47.852Z,6804
2017-05-22T07:44:02.190Z,6592
2017-05-22T07:45:16.341Z,6380
2017-05-22T07:46:30.532Z,6204
2017-05-22T07:47:44.770Z,6244
2017-05-22T07:48:58.829Z,6392
2017-05-22T07:50:12.775Z,6688
2017-05-22T07:51:27.097Z,6868
2017-05-22T07:52:40.954Z,6952
2017-05-22T07:53:55.259Z,6792
2017-05-22T07:55:10.558Z,6628
2017-05-22T07:56:24.271Z,6496
2017-05-22T07:57:38.177Z,6424
2017-05-22T07:58:51.969Z,6112
2017-05-22T08:00:05.620Z,5744
2017-05-22T08:01:19.308Z,5848
2017-05-22T08:02:33.947Z,6396
2017-05-22T08:03:48.320Z,7052
2017-05-22T08:05:04.374Z,7612
2017-05-22T08:06:18.753Z,7800
2017-05-22T08:07:32.524Z,8008
2017-05-22T08:08:47.450Z,8084
2017-05-22T08:10:01.726Z,8000
2017-05-22T08:11:15.757Z,7760
2017-05-22T08:12:30.052Z,7836
2017-05-22T08:13:45.134Z,8056
2017-05-22T08:14:59.238Z,8164
2017-05-22T08:16:13.328Z,7596
2017-05-22T08:17:28.002Z,6860
2017-05-22T08:18:44.868Z,6120
2017-05-22T08:19:59.026Z,5676
2017-05-22T08:21:13.027Z,5388
2017-05-22T08:22:27.203Z,5080
2017-05-22T08:23:41.933Z,4928
2017-05-22T08:24:55.799Z,5184
2017-05-22T08:26:09.638Z,5784
2017-05-22T08:27:23.578Z,6328
2017-05-22T08:28:37.549Z,6692
2017-05-22T08:29:51.624Z,6920
2017-05-22T08:31:05.599Z,6880
2017-05-22T08:32:19.916Z,6868
2017-05-22T08:33:33.744Z,6908
2017-05-22T08:34:48.596Z,6896
2017-05-22T08:36:02.653Z,6760
2017-05-22T08:37:17.526Z,6612
2017-05-22T08:38:31.863Z,6496
2017-05-22T08:39:45.567Z,6432
2017-05-22T08:40:59.927Z,6336
2017-05-22T08:42:14.974Z,6208
2017-05-22T08:43:28.879Z,6096
2017-05-22T08:44:43.128Z,5952
2017-05-22T08:46:00.735Z,5756
2017-05-22T08:47:17.982Z,5592
2017-05-22T08:48:33.302Z,5464
2017-05-22T08:49:53.889Z,5356
2017-05-22T08:51:11.821Z,5212
2017-05-22T08:52:28.732Z,5076
2017-05-22T08:53:46.661Z,4904
2017-05-22T08:55:02.511Z,4780
2017-05-22T08:56:22.838Z,4644
2017-05-22T08:57:38.819Z,4536
2017-05-22T08:58:57.880Z,4492
2017-05-22T09:00:16.484Z,4496
2017-05-22T09:01:35.535Z,4568
2017-05-22T09:02:50.544Z,4692
2017-05-22T09:04:06.355Z,4876
2017-05-22T09:05:26.082Z,5064
2017-05-22T09:06:42.891Z,5216
2017-05-22T09:07:57.693Z,5288
2017-05-22T09:09:13.772Z,5368
2017-05-22T09:10:27.763Z,5468
2017-05-22T09:11:41.812Z,5540
2017-05-22T09:12:56.291Z,5668
2017-05-22T09:14:10.469Z,5808
2017-05-22T09:15:24.795Z,5932
2017-05-22T09:16:38.568Z,6064
2017-05-22T09:17:52.536Z,6184
2017-05-22T09:20:13.936Z,6492
2017-05-22T09:21:28.879Z,6716
2017-05-22T09:22:42.880Z,6936
2017-05-22T09:23:57.191Z,7104
2017-05-22T09:25:10.867Z,7244
2017-05-22T09:26:24.583Z,7388
2017-05-22T09:27:38.576Z,7520
2017-05-22T09:28:52.296Z,7556
2017-05-22T09:30:13.278Z,7576
2017-05-22T09:31:27.015Z,7556
2017-05-22T09:32:40.678Z,7556
2017-05-22T09:33:54.838Z,7532
2017-05-22T09:35:08.814Z,7620
2017-05-22T09:36:23.318Z,7744
2017-05-22T09:37:37.005Z,7832
2017-05-22T09:38:50.958Z,7820
2017-05-22T09:40:05.315Z,7780
2017-05-22T09:41:20.116Z,7756
2017-05-22T09:42:34.264Z,7680
2017-05-22T09:43:48.306Z,7636
2017-05-22T09:45:01.975Z,7668
2017-05-22T09:46:15.742Z,7812
2017-05-22T09:47:29.542Z,8048
2017-05-22T09:48:43.544Z,8272
2017-05-22T09:49:57.305Z,8460
2017-05-22T09:51:12.766Z,8564
2017-05-22T09:52:29.461Z,8632
2017-05-22T09:53:43.181Z,8684
2017-05-22T09:54:57.140Z,8784
2017-05-22T09:56:11.111Z,8960
2017-05-22T09:57:25.145Z,9144
2017-05-22T09:58:38.774Z,9300
2017-05-22T09:59:53.040Z,9380
2017-05-22T10:01:07.940Z,9416
2017-05-22T10:02:21.600Z,9416
2017-05-22T10:03:35.600Z,9380
2017-05-22T10:04:49.610Z,9092
2017-05-22T10:06:03.634Z,8772
2017-05-22T10:07:17.745Z,8372
2017-05-22T10:08:31.668Z,7928
2017-05-22T10:09:45.420Z,7524
2017-05-22T10:10:59.055Z,7284
2017-05-22T10:12:13.071Z,6964
2017-05-22T10:13:27.387Z,6764
2017-05-22T10:14:41.485Z,6204
2017-05-22T10:15:55.457Z,5480
2017-05-22T10:17:09.186Z,5020
2017-05-22T10:18:22.824Z,4760
2017-05-22T10:19:36.705Z,4492
2017-05-22T10:20:50.473Z,4396
2017-05-22T10:22:04.115Z,4420
2017-05-22T10:23:21.125Z,4380
2017-05-22T10:24:34.672Z,4200
2017-05-22T10:25:48.392Z,4112
2017-05-22T10:27:02.353Z,3900
2017-05-22T10:28:16.401Z,3680
2017-05-22T10:29:30.114Z,3496
2017-05-22T10:30:44.749Z,3352
2017-05-22T10:31:58.387Z,3220
2017-05-22T10:33:12.041Z,3144
2017-05-22T10:34:25.759Z,3084
2017-05-22T10:35:39.631Z,3032
2017-05-22T10:36:53.346Z,2992
2017-05-22T10:38:07.014Z,2964
2017-05-22T10:39:20.957Z,2936
2017-05-22T10:40:34.980Z,2920
2017-05-22T10:41:48.978Z,2904
2017-05-22T10:43:02.997Z,2884
2017-05-22T10:44:16.964Z,2868
2017-05-22T10:45:30.898Z,2848
2017-05-22T10:46:44.574Z,2836
2017-05-22T10:47:58.330Z,2808
2017-05-22T10:49:12.715Z,2796
2017-05-22T10:50:26.783Z,2784
2017-05-22T10:51:40.667Z,2784
2017-05-22T10:52:54.316Z,2776
2017-05-22T10:54:08.338Z,2768
2017-05-22T10:55:22.899Z,2756
2017-05-22T10:56:36.864Z,2748
2017-05-22T10:57:51.306Z,2732
2017-05-22T10:59:05.112Z,2724
2017-05-22T11:00:19.193Z,2708
2017-05-22T11:01:33.291Z,2696
2017-05-22T11:02:47.598Z,2688
2017-05-22T11:04:01.363Z,2676
2017-05-22T11:05:15.035Z,2676
2017-05-22T11:06:28.618Z,2680
2017-05-22T11:07:42.602Z,2676
2017-05-22T11:08:56.718Z,2648
2017-05-22T11:10:10.375Z,2632
2017-05-22T11:11:24.140Z,2644
2017-05-22T11:12:37.818Z,2784
2017-05-22T11:13:51.752Z,2672
2017-05-22T11:15:05.901Z,2608
2017-05-22T11:16:21.300Z,2648
2017-05-22T11:17:35.195Z,2312
2017-05-22T11:18:49.167Z,2360
2017-05-22T11:20:03.571Z,2732
2017-05-22T11:21:17.677Z,2468
2017-05-22T11:22:31.357Z,2716
2017-05-22T11:23:44.987Z,2696
2017-05-22T11:24:58.694Z,2680
2017-05-22T11:26:12.705Z,2540
2017-05-22T11:27:26.398Z,2312
2017-05-22T11:28:40.623Z,2152
2017-05-22T11:29:54.329Z,2364
2017-05-22T11:31:22.820Z,2680
2017-05-22T11:32:36.827Z,2716
2017-05-22T11:33:50.541Z,3100
2017-05-22T11:35:04.195Z,3528
2017-05-22T11:36:18.592Z,3760
2017-05-22T11:37:32.267Z,3976
2017-05-22T11:38:46.580Z,4188
2017-05-22T11:40:00.451Z,4340
2017-05-22T11:41:15.295Z,4488
2017-05-22T11:42:29.078Z,4696
2017-05-22T11:43:42.838Z,4480
2017-05-22T11:44:56.850Z,4088
2017-05-22T11:46:11.031Z,3744
2017-05-22T11:47:24.901Z,3368
2017-05-22T11:48:38.930Z,3184
2017-05-22T11:49:52.539Z,2804
2017-05-22T11:51:06.557Z,2764
2017-05-22T11:52:20.186Z,2716
2017-05-22T11:53:33.941Z,2768
2017-05-22T11:54:47.930Z,2840
2017-05-22T11:56:01.625Z,2844
2017-05-22T11:57:15.721Z,2776
2017-05-22T11:58:29.445Z,2596
2017-05-22T11:59:43.048Z,2472
2017-05-22T12:00:57.866Z,2800
2017-05-22T12:02:12.841Z,2972
2017-05-22T12:03:27.991Z,2816
2017-05-22T12:04:42.318Z,3036
2017-05-22T12:05:56.636Z,3052
2017-05-22T12:07:10.673Z,3036
2017-05-22T12:08:25.300Z,3052
2017-05-22T12:09:39.407Z,3060
2017-05-22T12:10:53.092Z,3128
2017-05-22T12:12:06.847Z,3192
2017-05-22T12:13:20.915Z,3200
2017-05-22T12:14:34.964Z,3176
2017-05-22T12:15:48.949Z,3172
2017-05-22T12:17:03.215Z,3300
2017-05-22T12:18:17.963Z,3476
2017-05-22T12:19:31.919Z,3708
2017-05-22T12:20:46.361Z,3764
2017-05-22T12:22:00.723Z,3628
2017-05-22T12:23:14.994Z,3544
2017-05-22T12:24:28.972Z,3556
2017-05-22T12:25:42.872Z,3588
2017-05-22T12:26:56.902Z,3540
2017-05-22T12:28:11.136Z,3456
2017-05-22T12:29:25.065Z,3460
2017-05-22T12:30:39.332Z,3596
2017-05-22T12:31:53.366Z,3676
2017-05-22T12:33:07.708Z,3616
2017-05-22T12:34:21.722Z,3608
2017-05-22T12:35:35.302Z,3548
2017-05-22T12:36:49.759Z,3552
2017-05-22T12:38:03.809Z,3448
2017-05-22T12:39:17.735Z,3368
2017-05-22T12:40:32.821Z,3280
2017-05-22T12:41:46.433Z,3220
2017-05-22T12:43:00.117Z,3200
2017-05-22T12:44:13.741Z,3244
2017-05-22T12:45:27.365Z,3388
2017-05-22T12:46:41.328Z,3560
2017-05-22T12:47:55.607Z,3768
2017-05-22T12:49:09.432Z,3912
2017-05-22T12:50:23.129Z,3968
2017-05-22T12:51:36.797Z,3936
2017-05-22T12:52:51.475Z,3896
2017-05-22T12:54:05.381Z,3888
2017-05-22T12:55:19.122Z,3940
2017-05-22T12:56:33.065Z,3900
2017-05-22T12:57:46.789Z,3592
2017-05-22T12:59:00.796Z,3624
2017-05-22T13:00:15.485Z,3716
2017-05-22T13:01:30.274Z,3580
2017-05-22T13:02:44.031Z,3448
2017-05-22T13:03:57.818Z,3508
2017-05-22T13:05:11.839Z,3560
2017-05-22T13:06:25.521Z,3684
2017-05-22T13:07:39.652Z,3872
2017-05-22T13:08:53.603Z,3888
2017-05-22T13:10:07.220Z,3932
2017-05-22T13:11:21.506Z,4048
2017-05-22T13:12:35.208Z,4372
2017-05-22T13:13:48.917Z,4352
2017-05-22T13:15:02.610Z,4356
2017-05-22T13:16:16.574Z,4296
2017-05-22T13:17:30.635Z,4212
2017-05-22T13:18:44.515Z,3944
2017-05-22T13:19:58.621Z,3932
2017-05-22T13:21:12.903Z,4024
2017-05-22T13:22:26.571Z,4072
2017-05-22T13:23:46.804Z,4392
2017-05-22T13:25:00.842Z,4424
2017-05-22T13:26:15.151Z,4588
2017-05-22T13:27:29.955Z,4728
2017-05-22T13:28:44.073Z,4772
2017-05-22T13:29:58.367Z,4808
2017-05-22T13:31:12.052Z,4804
2017-05-22T13:32:26.031Z,4732
2017-05-22T13:33:40.201Z,4604
2017-05-22T13:34:54.244Z,4484
2017-05-22T13:36:08.614Z,4292
2017-05-22T13:37:22.307Z,4148
2017-05-22T13:38:36.052Z,4188
2017-05-22T13:39:49.690Z,4404
2017-05-22T13:41:04.082Z,4692
2017-05-22T13:42:18.172Z,4772
2017-05-22T13:43:32.270Z,4788
2017-05-22T13:44:46.021Z,4840
2017-05-22T13:45:59.609Z,4844
2017-05-22T13:47:13.354Z,4616
2017-05-22T13:48:27.315Z,4368
2017-05-22T13:49:40.987Z,4164
2017-05-22T13:50:54.580Z,3936
2017-05-22T13:52:08.567Z,3776
2017-05-22T13:53:22.594Z,3688
2017-05-22T13:54:36.672Z,3608
2017-05-22T13:55:51.124Z,3536
2017-05-22T13:57:04.732Z,3432
2017-05-22T13:58:19.560Z,3216
2017-05-22T13:59:33.700Z,2952
2017-05-22T14:00:47.831Z,2864
2017-05-22T14:02:02.871Z,2792
2017-05-22T14:03:16.554Z,2748
2017-05-22T14:04:30.210Z,2744
2017-05-22T14:05:43.991Z,2836
2017-05-22T14:06:58.741Z,2940
2017-05-22T14:08:12.825Z,3088
2017-05-22T14:09:26.793Z,3260
2017-05-22T14:10:40.456Z,3472
2017-05-22T14:11:54.090Z,3656
2017-05-22T14:13:08.147Z,3808
2017-05-22T14:14:22.107Z,4008
2017-05-22T14:15:37.275Z,4208
2017-05-22T14:16:51.295Z,4324
2017-05-22T14:18:05.248Z,4444
2017-05-22T14:19:19.484Z,4460
2017-05-22T14:20:33.570Z,4556
2017-05-22T14:21:47.249Z,4620
2017-05-22T14:23:00.884Z,4724
2017-05-22T14:24:15.523Z,4744
2017-05-22T14:25:29.486Z,4736
2017-05-22T14:26:44.025Z,4832
2017-05-22T14:27:58.469Z,4752
2017-05-22T14:29:12.803Z,4640
2017-05-22T14:30:26.853Z,4552
2017-05-22T14:31:41.312Z,4444
2017-05-22T14:32:54.935Z,4272
2017-05-22T14:34:08.727Z,4112
2017-05-22T14:35:23.129Z,4112
2017-05-22T14:36:37.087Z,4260
2017-05-22T14:37:51.049Z,4384
2017-05-22T14:39:05.177Z,4352
2017-05-22T14:40:19.301Z,4236
2017-05-22T14:41:32.949Z,4112
2017-05-22T14:44:22.954Z,3968
2017-05-22T14:45:38.292Z,3944
2017-05-22T14:46:55.630Z,3920
2017-05-22T14:48:11.743Z,3856
2017-05-22T14:49:26.066Z,3796
2017-05-22T14:50:41.601Z,3788
2017-05-22T14:51:57.461Z,3868
2017-05-22T14:53:13.191Z,3904
2017-05-22T14:54:28.588Z,3880
2017-05-22T14:55:46.199Z,3820
2017-05-22T14:57:02.549Z,3788
2017-05-22T14:58:21.206Z,3788
2017-05-22T14:59:40.576Z,3848
2017-05-22T15:00:58.918Z,3928
2017-05-22T15:02:15.519Z,3996
2017-05-22T15:03:29.295Z,4048
2017-05-22T15:04:44.097Z,4084
2017-05-22T15:05:57.712Z,4068
2017-05-22T15:07:14.449Z,4016
2017-05-22T15:08:28.869Z,3956
2017-05-22T15:09:43.267Z,3884
2017-05-22T15:10:56.937Z,3788
2017-05-22T15:12:11.604Z,3696
2017-05-22T15:13:25.748Z,3656
2017-05-22T15:14:42.451Z,3708
2017-05-22T15:15:57.597Z,3796
2017-05-22T15:17:11.318Z,3932
2017-05-22T15:18:25.301Z,3956
2017-05-22T15:19:39.114Z,4036
2017-05-22T15:20:53.748Z,4056
2017-05-22T15:22:08.196Z,4032
2017-05-22T15:23:22.850Z,4056
2017-05-22T15:24:36.889Z,4088
2017-05-22T15:25:50.633Z,4012
2017-05-22T15:27:04.677Z,3844
2017-05-22T15:28:18.656Z,3724
2017-05-22T15:29:32.647Z,3612
2017-05-22T15:30:46.809Z,3516
2017-05-22T15:32:01.674Z,3476
2017-05-22T15:33:15.810Z,3424
2017-05-22T15:34:29.533Z,3336
2017-05-22T15:35:43.545Z,3200
2017-05-22T15:36:57.434Z,3060
2017-05-22T15:38:11.115Z,2932
2017-05-22T15:39:25.135Z,2764
2017-05-22T15:40:38.909Z,2576
2017-05-22T15:41:53.171Z,2392
2017-05-22T15:43:07.231Z,2384
2017-05-22T15:44:21.210Z,2432
2017-05-22T15:45:35.211Z,2384
2017-05-22T15:46:48.969Z,2208
2017-05-22T15:48:03.101Z,2180
2017-05-22T15:49:17.135Z,2124
2017-05-22T15:50:31.470Z,1976
2017-05-22T15:51:45.460Z,1904
2017-05-22T15:52:59.082Z,1892
2017-05-22T15:54:13.101Z,1876
2017-05-22T15:55:26.803Z,1936
2017-05-22T15:56:40.506Z,1972
2017-05-22T15:57:54.423Z,1920
2017-05-22T15:59:08.429Z,1836
2017-05-22T16:00:22.069Z,1780
2017-05-22T16:01:36.011Z,1744
2017-05-22T16:02:51.169Z,1724
2017-05-22T16:04:05.133Z,1708
2017-05-22T16:05:18.785Z,1696
2017-05-22T16:06:32.778Z,1696
2017-05-22T16:07:46.790Z,1696
2017-05-22T16:09:01.151Z,1700
2017-05-22T16:10:15.111Z,1704
2017-05-22T16:11:28.871Z,1700
2017-05-22T16:12:43.020Z,1692
2017-05-22T16:13:57.025Z,1676
2017-05-22T16:15:11.396Z,1664
2017-05-22T16:16:25.810Z,1656
2017-05-22T16:17:39.879Z,1628
2017-05-22T16:18:53.844Z,1620
2017-05-22T16:20:12.806Z,1652
2017-05-22T16:21:40.732Z,1828
2017-05-22T16:23:02.858Z,1832
2017-05-22T16:24:26.020Z,1828
2017-05-22T16:25:51.393Z,1828
2017-05-22T16:27:15.597Z,1848
2017-05-22T16:28:40.582Z,1896
2017-05-22T16:30:04.711Z,1932
2017-05-22T16:31:26.388Z,1948
2017-05-22T16:32:50.477Z,1992
2017-05-22T16:34:14.404Z,2076
2017-05-22T16:35:35.195Z,2080
2017-05-22T16:36:52.603Z,2036
2017-05-22T16:38:17.825Z,1964
2017-05-22T16:39:43.050Z,1900
2017-05-22T16:41:09.702Z,1848
2017-05-22T16:42:32.848Z,1772
2017-05-22T16:43:58.410Z,1744
2017-05-22T16:45:21.096Z,1740
2017-05-22T16:46:44.696Z,1708
2017-05-22T16:47:58.453Z,1712
2017-05-22T16:49:12.791Z,1732
2017-05-22T16:50:27.006Z,1768
2017-05-22T16:51:40.846Z,1796
2017-05-22T16:52:54.631Z,1768
2017-05-22T16:54:08.295Z,1720
2017-05-22T16:55:22.298Z,1692